createdAt,value
2022-07-27T00:03:39.141Z,16.70
2022-07-27T00:09:03.893Z,16.70
2022-07-27T00:14:28.982Z,16.50
2022-07-27T00:19:53.179Z,16.50
2022-07-27T00:25:17.671Z,16.70
2022-07-27T00:30:43.192Z,16.70
2022-07-27T00:36:09.195Z,16.80
2022-07-27T00:41:32.986Z,16.90
2022-07-27T00:46:58.299Z,16.70
2022-07-27T00:52:23.872Z,17.00
2022-07-27T00:57:59.075Z,16.60
2022-07-27T01:03:29.803Z,16.70
2022-07-27T01:09:14.595Z,17.20
2022-07-27T01:14:40.256Z,16.80
2022-07-27T01:20:06.569Z,16.70
2022-07-27T01:25:31.241Z,16.70
2022-07-27T01:30:56.347Z,16.60
2022-07-27T01:36:19.992Z,16.60
2022-07-27T01:41:44.924Z,17.00
2022-07-27T01:47:14.282Z,16.50
2022-07-27T01:52:39.237Z,16.20
2022-07-27T01:58:07.263Z,16.20
2022-07-27T02:03:30.491Z,16.00
2022-07-27T02:08:53.877Z,16.10
2022-07-27T02:14:19.122Z,15.80
2022-07-27T02:19:45.078Z,15.80
2022-07-27T02:25:09.960Z,15.90
2022-07-27T02:30:35.251Z,15.80
2022-07-27T02:35:58.784Z,16.00
2022-07-27T02:41:22.126Z,15.60
2022-07-27T02:46:47.902Z,15.80
2022-07-27T02:52:11.672Z,15.70
2022-07-27T02:57:37.995Z,15.60
2022-07-27T03:03:03.265Z,15.50
2022-07-27T03:08:26.603Z,15.10
2022-07-27T03:13:51.004Z,15.90
2022-07-27T03:19:15.809Z,15.30
2022-07-27T03:24:39.117Z,15.10
2022-07-27T03:30:02.624Z,15.00
2022-07-27T03:35:27.243Z,15.10
2022-07-27T03:40:50.841Z,15.10
2022-07-27T03:46:14.217Z,15.00
2022-07-27T03:51:39.190Z,15.10
2022-07-27T03:57:05.022Z,14.80
2022-07-27T04:02:28.470Z,14.60
2022-07-27T04:07:54.885Z,14.60
2022-07-27T04:13:21.697Z,14.90
2022-07-27T04:18:45.642Z,13.60
2022-07-27T04:24:11.146Z,15.20
2022-07-27T04:29:35.648Z,15.40
2022-07-27T04:34:59.098Z,15.20
2022-07-27T04:40:24.011Z,15.70
2022-07-27T04:45:47.419Z,16.10
2022-07-27T04:51:14.835Z,15.80
2022-07-27T04:56:39.973Z,15.90
2022-07-27T05:02:03.729Z,16.40
2022-07-27T05:07:27.606Z,16.50
2022-07-27T05:12:54.244Z,16.90
2022-07-27T05:18:19.127Z,17.50
2022-07-27T05:23:42.427Z,17.70
2022-07-27T05:29:09.401Z,17.90
2022-07-27T05:34:33.391Z,18.70
2022-07-27T05:39:57.932Z,18.80
2022-07-27T05:45:23.287Z,19.30
2022-07-27T05:50:49.171Z,19.40
2022-07-27T05:56:12.758Z,19.60
2022-07-27T06:01:37.794Z,20.10
2022-07-27T06:07:27.159Z,20.30
2022-07-27T06:12:52.256Z,20.60
2022-07-27T06:18:18.510Z,21.00
2022-07-27T06:23:43.527Z,21.30
2022-07-27T06:29:10.564Z,21.60
2022-07-27T06:34:42.242Z,22.10
2022-07-27T06:40:07.977Z,22.00
2022-07-27T06:45:31.599Z,22.00
2022-07-27T06:50:57.150Z,22.30
2022-07-27T06:56:20.813Z,23.10
2022-07-27T07:01:48.654Z,23.20
2022-07-27T07:07:14.242Z,23.90
2022-07-27T07:12:38.068Z,23.90
2022-07-27T07:18:02.751Z,24.20
2022-07-27T07:23:27.802Z,23.90
2022-07-27T07:28:51.046Z,24.10
2022-07-27T07:34:15.028Z,25.40
2022-07-27T07:39:39.680Z,24.90
2022-07-27T07:45:03.053Z,26.20
2022-07-27T07:50:27.206Z,26.00
2022-07-27T07:55:52.970Z,26.70
2022-07-27T08:01:16.870Z,27.10
2022-07-27T08:06:40.750Z,27.30
2022-07-27T08:12:06.366Z,25.80
2022-07-27T08:17:30.037Z,24.60
2022-07-27T08:22:53.379Z,23.70
2022-07-27T08:28:19.352Z,23.50
2022-07-27T08:33:43.169Z,22.90
2022-07-27T08:39:08.698Z,21.90
2022-07-27T08:44:34.667Z,21.70
2022-07-27T08:50:00.061Z,22.20
2022-07-27T09:02:39.262Z,26.50
2022-07-27T09:09:02.173Z,25.40
2022-07-27T09:28:18.409Z,20.90
2022-07-27T09:40:49.103Z,23.80
2022-07-27T09:46:25.755Z,26.10
2022-07-27T09:52:08.031Z,26.80
2022-07-27T10:11:00.135Z,22.60
2022-07-27T10:30:54.217Z,24.80
2022-07-27T10:36:46.905Z,26.10
2022-07-27T10:42:25.321Z,25.40
2022-07-27T10:47:51.054Z,25.30
2022-07-27T10:53:16.597Z,25.20
2022-07-27T10:58:51.637Z,22.00
2022-07-27T11:04:15.256Z,26.00
2022-07-27T11:10:03.627Z,26.00
2022-07-27T11:15:28.420Z,26.30
2022-07-27T11:20:54.358Z,22.50
2022-07-27T11:33:08.068Z,26.10
2022-07-27T11:39:00.330Z,27.30
2022-07-27T11:44:54.386Z,30.00
2022-07-27T11:51:18.526Z,33.00
2022-07-27T11:56:47.338Z,30.40
2022-07-27T12:02:54.211Z,26.80
2022-07-27T12:08:18.883Z,26.20
2022-07-27T12:13:43.787Z,25.90
2022-07-27T12:19:09.246Z,25.70
2022-07-27T12:24:34.863Z,25.30
2022-07-27T12:30:09.481Z,26.90
2022-07-27T12:35:46.010Z,29.00
2022-07-27T12:41:10.497Z,30.10
2022-07-27T12:46:35.145Z,29.80
2022-07-27T12:52:08.492Z,28.20
2022-07-27T12:57:53.955Z,26.10
2022-07-27T13:03:16.279Z,26.10
2022-07-27T13:08:41.889Z,25.30
2022-07-27T13:14:07.810Z,25.20
2022-07-27T13:19:32.571Z,25.10
2022-07-27T13:24:57.608Z,26.00
2022-07-27T13:30:21.094Z,26.80
2022-07-27T13:35:45.941Z,27.10
2022-07-27T13:41:14.045Z,27.50
2022-07-27T13:46:38.988Z,26.50
2022-07-27T13:52:03.172Z,26.60
2022-07-27T13:57:27.799Z,25.70
2022-07-27T14:02:51.440Z,25.20
2022-07-27T14:08:14.876Z,25.00
2022-07-27T14:13:40.702Z,25.70
2022-07-27T14:19:09.343Z,26.20
2022-07-27T14:24:38.079Z,26.10
2022-07-27T14:30:03.257Z,25.30
2022-07-27T14:35:26.645Z,25.30
2022-07-27T14:40:51.028Z,26.70
2022-07-27T14:46:16.027Z,28.10
2022-07-27T14:51:39.559Z,27.80
2022-07-27T14:57:03.158Z,26.90
2022-07-27T15:02:28.451Z,25.80
2022-07-27T15:07:52.625Z,24.70
2022-07-27T15:13:16.315Z,24.30
2022-07-27T15:18:41.082Z,24.40
2022-07-27T15:24:05.006Z,24.40
2022-07-27T15:29:28.640Z,24.40
2022-07-27T15:34:53.643Z,24.70
2022-07-27T15:40:34.826Z,24.10
2022-07-27T15:45:58.472Z,23.70
2022-07-27T15:51:23.828Z,25.20
2022-07-27T15:56:47.384Z,23.50
2022-07-27T16:02:11.761Z,23.10
2022-07-27T16:07:41.439Z,23.20
2022-07-27T16:13:06.075Z,23.00
2022-07-27T16:18:32.956Z,23.20
2022-07-27T16:24:00.615Z,24.50
2022-07-27T16:29:24.373Z,25.40
2022-07-27T16:34:47.647Z,26.40
2022-07-27T16:40:13.991Z,25.70
2022-07-27T16:45:40.105Z,25.50
2022-07-27T16:51:03.466Z,24.70
2022-07-27T16:56:28.499Z,23.50
2022-07-27T17:01:52.474Z,22.80
2022-07-27T17:07:15.862Z,23.40
2022-07-27T17:12:40.449Z,23.20
2022-07-27T17:18:05.761Z,22.90
2022-07-27T17:23:33.467Z,23.10
2022-07-27T17:28:58.415Z,22.40
2022-07-27T17:34:22.379Z,21.80
2022-07-27T17:39:45.871Z,22.80
2022-07-27T17:45:14.192Z,21.90
2022-07-27T17:50:37.822Z,21.80
2022-07-27T17:56:02.713Z,21.50
2022-07-27T18:01:47.638Z,21.20
2022-07-27T18:07:13.478Z,21.00
2022-07-27T18:12:37.127Z,20.70
2022-07-27T18:18:01.754Z,21.00
2022-07-27T18:23:27.088Z,22.00
2022-07-27T18:28:52.657Z,20.80
2022-07-27T18:34:17.851Z,20.60
2022-07-27T18:39:41.194Z,20.50
2022-07-27T18:45:05.383Z,20.30
2022-07-27T18:50:32.514Z,20.30
2022-07-27T18:55:59.315Z,21.80
2022-07-27T19:01:22.741Z,21.00
2022-07-27T19:06:48.715Z,20.70
2022-07-27T19:12:13.059Z,20.00
2022-07-27T19:17:36.615Z,20.10
2022-07-27T19:23:02.472Z,19.90
2022-07-27T19:28:25.887Z,19.80
2022-07-27T19:33:49.125Z,19.50
2022-07-27T19:39:15.027Z,19.30
2022-07-27T19:44:39.248Z,19.00
2022-07-27T19:50:03.049Z,19.10
2022-07-27T19:55:27.851Z,18.90
2022-07-27T20:00:51.411Z,18.80
2022-07-27T20:06:16.407Z,18.60
2022-07-27T20:11:43.653Z,18.80
2022-07-27T20:17:12.543Z,18.40
2022-07-27T20:22:36.108Z,18.50
2022-07-27T20:28:00.873Z,18.80
2022-07-27T20:33:24.330Z,18.20
2022-07-27T20:38:47.932Z,18.00
2022-07-27T20:44:13.880Z,18.00
2022-07-27T20:49:37.352Z,18.00
2022-07-27T20:55:36.709Z,17.90
2022-07-27T21:01:08.579Z,17.70
2022-07-27T21:06:38.039Z,14.90
2022-07-27T21:12:02.678Z,17.70
2022-07-27T21:17:37.798Z,17.50
2022-07-27T21:23:20.226Z,17.60
2022-07-27T21:28:43.814Z,17.70
2022-07-27T21:34:11.563Z,17.50
2022-07-27T21:39:59.039Z,17.40
2022-07-27T21:46:08.891Z,17.20
2022-07-27T21:51:34.252Z,15.30
2022-07-27T21:56:59.155Z,17.30
2022-07-27T22:02:34.014Z,17.10
2022-07-27T22:08:01.706Z,15.30
2022-07-27T22:13:29.484Z,16.60
2022-07-27T22:24:20.460Z,16.20
2022-07-27T22:29:43.802Z,16.30
2022-07-27T22:35:08.335Z,16.30
2022-07-27T22:40:32.994Z,16.20
2022-07-27T22:45:56.492Z,16.20
2022-07-27T22:51:19.750Z,15.90
2022-07-27T22:56:44.297Z,16.20
2022-07-27T23:02:08.207Z,16.00
2022-07-27T23:07:31.866Z,15.90
2022-07-27T23:12:56.548Z,16.00
2022-07-27T23:18:20.707Z,16.00
2022-07-27T23:23:51.103Z,15.70
2022-07-27T23:29:19.389Z,15.60
2022-07-27T23:34:42.693Z,15.50
2022-07-27T23:40:08.404Z,15.50
2022-07-27T23:45:34.833Z,15.50
2022-07-27T23:50:58.420Z,15.50
2022-07-27T23:56:21.654Z,15.40
